createdAt,value
2019-04-30T00:00:50.046Z,9.86
2019-04-30T00:03:21.291Z,9.81
2019-04-30T00:05:53.807Z,9.75
2019-04-30T00:08:22.197Z,9.67
2019-04-30T00:10:51.875Z,9.61
2019-04-30T00:13:21.493Z,9.61
2019-04-30T00:15:52.871Z,9.61
2019-04-30T00:18:22.413Z,9.62
2019-04-30T00:20:52.008Z,9.65
2019-04-30T00:23:22.598Z,9.67
2019-04-30T00:25:53.017Z,9.68
2019-04-30T00:28:22.629Z,9.70
2019-04-30T00:30:52.234Z,9.66
2019-04-30T00:33:23.156Z,9.62
2019-04-30T00:35:55.163Z,9.55
2019-04-30T00:38:25.288Z,9.45
2019-04-30T00:40:55.731Z,9.37
2019-04-30T00:43:26.540Z,9.32
2019-04-30T00:45:56.158Z,9.22
2019-04-30T00:48:29.605Z,9.17
2019-04-30T00:50:57.139Z,9.15
2019-04-30T00:53:26.725Z,9.19
2019-04-30T00:55:57.343Z,9.18
2019-04-30T00:58:30.192Z,9.07
2019-04-30T01:01:16.150Z,9.09
2019-04-30T01:03:49.569Z,9.08
2019-04-30T01:06:24.656Z,9.05
2019-04-30T01:08:50.065Z,9.01
2019-04-30T01:11:19.841Z,8.98
2019-04-30T01:13:50.983Z,8.98
2019-04-30T01:16:23.579Z,8.92
2019-04-30T01:18:52.080Z,8.91
2019-04-30T01:21:22.155Z,8.95
2019-04-30T01:23:54.756Z,8.91
2019-04-30T01:26:27.684Z,8.92
2019-04-30T01:29:00.556Z,8.89
2019-04-30T01:31:32.466Z,8.91
2019-04-30T01:33:59.249Z,8.89
2019-04-30T01:36:29.389Z,8.91
2019-04-30T01:38:59.333Z,8.88
2019-04-30T01:41:31.398Z,8.81
2019-04-30T01:44:03.753Z,8.71
2019-04-30T01:46:31.742Z,8.69
2019-04-30T01:49:01.346Z,8.69
2019-04-30T01:51:30.944Z,8.60
2019-04-30T01:54:01.527Z,8.53
2019-04-30T01:56:32.777Z,8.49
2019-04-30T01:59:09.982Z,8.52
2019-04-30T02:01:43.786Z,8.54
2019-04-30T02:04:13.396Z,8.59
2019-04-30T02:06:42.991Z,8.56
2019-04-30T02:09:12.611Z,8.54
2019-04-30T02:11:42.201Z,8.51
2019-04-30T02:14:11.805Z,8.48
2019-04-30T02:16:41.414Z,8.47
2019-04-30T02:19:11.085Z,8.39
2019-04-30T02:21:40.686Z,8.32
2019-04-30T02:24:11.159Z,8.36
2019-04-30T02:26:40.864Z,8.38
2019-04-30T02:29:10.484Z,8.32
2019-04-30T02:31:40.801Z,8.30
2019-04-30T02:34:15.264Z,8.32
2019-04-30T02:36:49.922Z,8.24
2019-04-30T02:39:20.402Z,8.19
2019-04-30T02:41:51.684Z,8.26
2019-04-30T02:44:23.900Z,8.22
2019-04-30T02:46:55.706Z,8.18
2019-04-30T02:49:30.366Z,8.14
2019-04-30T02:52:04.116Z,8.18
2019-04-30T02:54:36.660Z,8.15
2019-04-30T02:57:11.723Z,8.06
2019-04-30T03:00:00.350Z,7.94
2019-04-30T03:02:30.941Z,7.97
2019-04-30T03:05:00.613Z,7.91
2019-04-30T03:07:30.525Z,7.83
2019-04-30T03:10:00.215Z,7.79
2019-04-30T03:12:30.637Z,7.76
2019-04-30T03:15:01.301Z,7.74
2019-04-30T03:17:35.423Z,7.76
2019-04-30T03:20:30.934Z,7.77
2019-04-30T03:22:51.344Z,7.76
2019-04-30T03:25:21.416Z,7.76
2019-04-30T03:27:51.030Z,7.77
2019-04-30T03:30:21.915Z,7.70
2019-04-30T03:32:56.645Z,7.69
2019-04-30T03:35:23.438Z,7.76
2019-04-30T03:37:53.138Z,7.72
2019-04-30T03:40:22.740Z,7.75
2019-04-30T03:42:52.349Z,7.70
2019-04-30T03:45:21.955Z,7.68
2019-04-30T03:47:51.540Z,7.69
2019-04-30T03:50:21.177Z,7.61
2019-04-30T03:52:50.746Z,7.68
2019-04-30T03:55:21.721Z,7.65
2019-04-30T03:57:52.057Z,7.60
2019-04-30T04:00:23.367Z,7.63
2019-04-30T04:02:53.008Z,7.62
2019-04-30T04:05:32.995Z,7.59
2019-04-30T04:08:12.742Z,7.60
2019-04-30T04:10:52.642Z,7.63
2019-04-30T04:13:20.956Z,7.66
2019-04-30T04:15:50.577Z,7.63
2019-04-30T04:18:20.387Z,7.72
2019-04-30T04:20:55.149Z,7.74
2019-04-30T04:23:21.434Z,7.76
2019-04-30T04:25:51.039Z,7.81
2019-04-30T04:28:20.644Z,7.83
2019-04-30T04:30:50.791Z,7.84
2019-04-30T04:33:20.545Z,7.91
2019-04-30T04:35:50.191Z,7.98
2019-04-30T04:38:20.573Z,8.05
2019-04-30T04:40:50.506Z,8.08
2019-04-30T04:43:20.455Z,8.18
2019-04-30T04:45:50.298Z,8.26
2019-04-30T04:48:23.270Z,8.37
2019-04-30T04:50:51.225Z,8.39
2019-04-30T04:53:20.835Z,8.44
2019-04-30T04:55:50.419Z,8.47
2019-04-30T04:58:21.710Z,8.52
2019-04-30T05:00:51.511Z,8.59
2019-04-30T05:03:22.786Z,8.66
2019-04-30T05:05:52.400Z,8.72
2019-04-30T05:08:22.074Z,8.80
2019-04-30T05:10:51.678Z,8.91
2019-04-30T05:13:21.272Z,8.92
2019-04-30T05:15:51.530Z,9.01
2019-04-30T05:18:22.755Z,9.08
2019-04-30T05:20:52.452Z,9.17
2019-04-30T05:23:22.083Z,9.27
2019-04-30T05:25:51.652Z,9.32
2019-04-30T05:28:21.253Z,9.43
2019-04-30T05:30:50.858Z,9.52
2019-04-30T05:33:20.466Z,9.58
2019-04-30T05:35:50.077Z,9.65
2019-04-30T05:38:19.684Z,9.70
2019-04-30T05:40:49.649Z,9.81
2019-04-30T05:43:19.440Z,9.91
2019-04-30T05:45:49.351Z,10.03
2019-04-30T05:48:19.038Z,10.14
2019-04-30T05:50:51.523Z,10.23
2019-04-30T05:53:19.960Z,10.30
2019-04-30T05:55:49.566Z,10.43
2019-04-30T05:58:19.930Z,10.45
2019-04-30T06:00:50.044Z,10.49
2019-04-30T06:03:29.939Z,10.50
2019-04-30T06:05:51.186Z,10.56
2019-04-30T06:08:22.493Z,10.65
2019-04-30T06:10:56.523Z,10.72
2019-04-30T06:13:46.041Z,10.82
2019-04-30T06:16:18.826Z,10.90
2019-04-30T06:18:48.603Z,11.05
2019-04-30T06:21:19.316Z,11.19
2019-04-30T06:23:49.675Z,11.32
2019-04-30T06:26:20.665Z,11.44
2019-04-30T06:28:50.479Z,11.51
2019-04-30T06:31:31.806Z,11.61
2019-04-30T06:33:53.108Z,11.69
2019-04-30T06:36:22.936Z,11.78
2019-04-30T06:38:52.710Z,11.92
2019-04-30T06:41:22.307Z,12.07
2019-04-30T06:43:53.908Z,12.22
2019-04-30T06:46:23.672Z,12.38
2019-04-30T06:48:54.026Z,12.50
2019-04-30T06:51:24.209Z,12.60
2019-04-30T06:53:53.838Z,12.78
2019-04-30T06:56:23.448Z,12.95
2019-04-30T06:58:53.063Z,13.12
2019-04-30T07:01:24.168Z,13.33
2019-04-30T07:03:53.799Z,13.52
2019-04-30T07:06:29.645Z,13.75
2019-04-30T07:09:00.199Z,13.86
2019-04-30T07:11:31.507Z,13.99
2019-04-30T07:14:01.144Z,14.27
2019-04-30T07:16:30.772Z,14.54
2019-04-30T07:19:00.369Z,14.72
2019-04-30T07:21:31.702Z,14.90
2019-04-30T07:24:01.657Z,15.11
2019-04-30T07:26:31.256Z,15.32
2019-04-30T07:29:02.579Z,15.43
2019-04-30T07:31:33.431Z,15.53
2019-04-30T07:34:03.034Z,15.64
2019-04-30T07:36:45.326Z,15.49
2019-04-30T07:39:05.923Z,15.52
2019-04-30T07:41:35.531Z,15.71
2019-04-30T07:44:05.393Z,15.78
2019-04-30T07:46:39.839Z,15.80
2019-04-30T07:49:06.370Z,15.76
2019-04-30T07:51:38.765Z,15.68
2019-04-30T07:54:09.170Z,15.76
2019-04-30T07:56:41.765Z,15.96
2019-04-30T07:59:11.039Z,16.31
2019-04-30T08:02:00.642Z,16.55
2019-04-30T08:04:24.042Z,17.01
2019-04-30T08:06:54.055Z,17.48
2019-04-30T08:09:23.716Z,17.89
2019-04-30T08:11:53.321Z,18.35
2019-04-30T08:14:24.572Z,18.90
2019-04-30T08:16:54.304Z,19.20
2019-04-30T08:19:23.920Z,19.72
2019-04-30T08:21:53.505Z,20.16
2019-04-30T08:24:23.162Z,20.53
2019-04-30T08:26:52.750Z,20.78
2019-04-30T08:29:22.363Z,21.29
2019-04-30T08:31:51.987Z,22.13
2019-04-30T08:34:21.619Z,22.87
2019-04-30T08:36:53.293Z,23.18
2019-04-30T08:39:22.986Z,23.62
2019-04-30T08:41:52.595Z,24.36
2019-04-30T08:44:22.201Z,24.94
2019-04-30T08:46:53.062Z,25.49
2019-04-30T08:49:22.884Z,25.86
2019-04-30T08:51:52.940Z,26.10
2019-04-30T08:54:22.559Z,26.37
2019-04-30T08:56:52.189Z,27.02
2019-04-30T08:59:21.782Z,27.97
2019-04-30T09:01:51.407Z,28.52
2019-04-30T09:04:21.013Z,29.14
2019-04-30T09:06:50.627Z,29.57
2019-04-30T09:09:20.233Z,29.84
2019-04-30T09:11:55.174Z,30.37
2019-04-30T09:14:21.187Z,30.84
2019-04-30T09:16:51.368Z,31.48
2019-04-30T09:19:21.385Z,31.77
2019-04-30T09:21:51.085Z,32.21
2019-04-30T09:24:20.692Z,32.53
2019-04-30T09:26:50.304Z,32.48
2019-04-30T09:29:19.921Z,32.32
2019-04-30T09:31:49.562Z,32.45
2019-04-30T09:34:21.134Z,32.61
2019-04-30T09:36:52.348Z,32.92
2019-04-30T09:39:23.112Z,33.47
2019-04-30T09:41:52.858Z,34.26
2019-04-30T09:44:23.499Z,34.56
2019-04-30T09:46:53.119Z,34.60
2019-04-30T09:49:22.723Z,34.80
2019-04-30T09:51:52.609Z,35.26
2019-04-30T09:54:22.610Z,35.40
2019-04-30T09:56:52.786Z,35.80
2019-04-30T09:59:22.511Z,36.59
2019-04-30T10:01:52.125Z,37.52
2019-04-30T10:04:22.302Z,38.13
2019-04-30T10:06:54.757Z,38.51
2019-04-30T10:09:24.362Z,39.01
2019-04-30T10:11:59.632Z,39.25
2019-04-30T10:14:29.317Z,39.29
2019-04-30T10:17:03.153Z,39.39
2019-04-30T10:19:32.761Z,39.46
2019-04-30T10:22:02.369Z,39.41
2019-04-30T10:24:31.975Z,40.28
2019-04-30T10:27:02.933Z,41.38
2019-04-30T10:29:32.711Z,41.84
2019-04-30T10:32:02.307Z,41.68
2019-04-30T10:34:31.935Z,42.17
2019-04-30T10:37:02.994Z,43.25
2019-04-30T10:39:32.874Z,44.02
2019-04-30T10:42:02.950Z,44.97
2019-04-30T10:44:32.546Z,44.63
2019-04-30T10:47:02.175Z,44.77
2019-04-30T10:49:31.768Z,45.67
2019-04-30T10:52:01.391Z,46.11
2019-04-30T10:54:31.160Z,46.57
2019-04-30T10:57:00.772Z,46.77
2019-04-30T10:59:30.383Z,47.20
2019-04-30T11:01:59.986Z,47.65
2019-04-30T11:04:29.603Z,48.70
2019-04-30T11:07:00.509Z,49.47
2019-04-30T11:09:32.976Z,49.26
2019-04-30T11:12:03.221Z,49.09
2019-04-30T11:14:32.918Z,49.14
2019-04-30T11:17:02.853Z,48.60
2019-04-30T11:19:32.794Z,49.03
2019-04-30T11:22:02.738Z,49.66
2019-04-30T11:24:38.055Z,50.35
2019-04-30T11:27:04.349Z,50.27
2019-04-30T11:29:34.331Z,49.71
2019-04-30T11:32:08.685Z,49.69
2019-04-30T11:34:38.463Z,50.26
2019-04-30T11:37:08.134Z,51.07
2019-04-30T11:39:37.748Z,50.72
2019-04-30T11:42:07.920Z,51.01
2019-04-30T11:44:38.704Z,51.42
2019-04-30T11:47:28.351Z,51.59
2019-04-30T11:49:57.963Z,51.47
2019-04-30T11:52:27.803Z,52.21
2019-04-30T11:54:59.646Z,52.56
2019-04-30T11:57:29.899Z,52.43
2019-04-30T12:00:00.302Z,52.43
2019-04-30T12:02:31.564Z,53.05
2019-04-30T12:05:05.174Z,53.50
2019-04-30T12:07:50.986Z,53.62
2019-04-30T12:10:29.381Z,53.97
2019-04-30T12:12:59.044Z,53.63
2019-04-30T12:15:29.153Z,53.56
2019-04-30T12:17:58.876Z,53.78
2019-04-30T12:20:28.457Z,54.29
2019-04-30T12:22:59.142Z,54.53
2019-04-30T12:25:30.425Z,54.17
2019-04-30T12:28:00.070Z,54.66
2019-04-30T12:30:29.733Z,54.86
2019-04-30T12:33:00.678Z,54.99
2019-04-30T12:35:30.320Z,54.92
2019-04-30T12:37:59.905Z,54.92
2019-04-30T12:40:32.333Z,54.42
2019-04-30T12:43:02.153Z,54.30
2019-04-30T12:45:31.761Z,54.51
2019-04-30T12:48:02.995Z,53.88
2019-04-30T12:50:34.226Z,53.09
2019-04-30T12:53:05.640Z,52.66
2019-04-30T12:55:39.104Z,53.07
2019-04-30T12:58:09.775Z,53.96
2019-04-30T13:00:39.588Z,55.14
2019-04-30T13:03:09.855Z,55.67
2019-04-30T13:05:39.654Z,55.94
2019-04-30T13:08:10.170Z,55.41
2019-04-30T13:10:40.488Z,54.46
2019-04-30T13:13:11.083Z,54.68
2019-04-30T13:15:40.985Z,55.34
2019-04-30T13:18:10.595Z,56.13
2019-04-30T13:20:40.270Z,56.16
2019-04-30T13:23:09.882Z,56.04
2019-04-30T13:25:51.065Z,55.99
2019-04-30T13:28:15.033Z,55.51
2019-04-30T13:30:44.674Z,54.70
2019-04-30T13:33:15.920Z,54.34
2019-04-30T13:35:45.552Z,54.42
2019-04-30T13:38:16.799Z,55.12
2019-04-30T13:40:51.926Z,55.61
2019-04-30T13:43:24.563Z,55.86
2019-04-30T13:45:54.171Z,56.13
2019-04-30T13:48:23.763Z,56.49
2019-04-30T13:50:53.386Z,55.71
2019-04-30T13:53:22.994Z,54.85
2019-04-30T13:55:53.541Z,52.76
2019-04-30T13:58:23.159Z,52.72
2019-04-30T14:00:52.792Z,53.45
2019-04-30T14:03:25.570Z,53.88
2019-04-30T14:05:55.590Z,54.39
2019-04-30T14:08:38.875Z,54.28
2019-04-30T14:11:09.097Z,54.15
2019-04-30T14:13:39.026Z,53.35
2019-04-30T14:16:08.649Z,53.26
2019-04-30T14:18:39.092Z,53.19
2019-04-30T14:21:09.453Z,53.34
2019-04-30T14:23:39.608Z,53.11
2019-04-30T14:26:09.456Z,53.35
2019-04-30T14:28:39.233Z,52.62
2019-04-30T14:31:09.695Z,51.97
2019-04-30T14:33:40.152Z,51.79
2019-04-30T14:36:10.714Z,51.29
2019-04-30T14:38:40.685Z,50.98
2019-04-30T14:41:11.849Z,50.83
2019-04-30T14:43:44.571Z,46.54
2019-04-30T14:46:25.067Z,40.81
2019-04-30T14:49:15.015Z,36.20
2019-04-30T14:51:43.971Z,32.97
2019-04-30T14:54:21.237Z,32.97
2019-04-30T14:57:07.623Z,29.59
2019-04-30T14:59:52.232Z,28.61
2019-04-30T15:02:26.415Z,27.62
2019-04-30T15:04:56.033Z,26.96
2019-04-30T21:23:29.132Z,13.42
2019-04-30T21:25:58.947Z,13.15
2019-04-30T21:28:29.743Z,13.06
2019-04-30T21:31:01.120Z,13.09
2019-04-30T21:33:35.176Z,13.07
2019-04-30T21:36:08.350Z,13.11
2019-04-30T21:38:38.932Z,13.13
2019-04-30T21:41:09.967Z,13.13
2019-04-30T21:43:39.717Z,13.11
2019-04-30T21:46:09.604Z,13.13
2019-04-30T21:48:39.227Z,13.13
2019-04-30T21:51:09.410Z,13.12
2019-04-30T21:53:39.727Z,13.11
2019-04-30T21:56:09.450Z,13.09
2019-04-30T21:58:39.396Z,13.10
2019-04-30T22:01:13.452Z,13.05
2019-04-30T22:03:44.743Z,13.01
2019-04-30T22:06:15.284Z,13.15
2019-04-30T22:08:44.889Z,13.20
2019-04-30T22:11:14.679Z,13.24
2019-04-30T22:13:44.323Z,13.34
2019-04-30T22:16:14.026Z,13.32
2019-04-30T22:18:43.649Z,13.39
2019-04-30T22:21:13.241Z,13.36
2019-04-30T22:23:42.831Z,13.35
2019-04-30T22:26:12.444Z,13.36
2019-04-30T22:28:42.058Z,13.26
2019-04-30T22:31:11.671Z,13.28
2019-04-30T22:33:41.288Z,13.27
2019-04-30T22:36:14.977Z,13.26
2019-04-30T22:38:48.762Z,13.20
2019-04-30T22:41:19.438Z,13.19
2019-04-30T22:43:49.035Z,13.11
2019-04-30T22:46:19.534Z,13.12
2019-04-30T22:48:49.127Z,13.10
2019-04-30T22:51:18.760Z,13.05
2019-04-30T22:53:48.379Z,12.98
2019-04-30T22:56:17.985Z,12.95
2019-04-30T22:58:47.602Z,12.96
2019-04-30T23:01:30.718Z,12.99
2019-04-30T23:04:01.983Z,13.01
2019-04-30T23:06:31.605Z,13.00
2019-04-30T23:09:01.245Z,13.00
2019-04-30T23:11:30.860Z,13.04
2019-04-30T23:14:00.486Z,12.98
2019-04-30T23:16:30.684Z,13.05
2019-04-30T23:19:00.293Z,12.94
2019-04-30T23:21:29.901Z,12.84
2019-04-30T23:24:00.072Z,12.81
2019-04-30T23:26:29.684Z,12.76
2019-04-30T23:28:59.289Z,12.79
2019-04-30T23:31:28.921Z,12.77
2019-04-30T23:33:58.532Z,12.72
2019-04-30T23:36:28.152Z,12.76
2019-04-30T23:38:57.818Z,12.73
2019-04-30T23:41:27.452Z,12.82
2019-04-30T23:43:57.064Z,12.86
2019-04-30T23:46:26.705Z,12.86
2019-04-30T23:48:56.316Z,12.84
2019-04-30T23:51:25.932Z,12.78
2019-04-30T23:53:55.543Z,12.74
2019-04-30T23:56:25.177Z,12.72
2019-04-30T23:58:54.789Z,12.72
